createdAt,value
2023-01-11T00:01:10.989Z,3.49
2023-01-11T00:03:37.840Z,3.48
2023-01-11T00:06:05.025Z,3.43
2023-01-11T00:08:34.138Z,3.43
2023-01-11T00:11:02.446Z,3.40
2023-01-11T00:13:30.409Z,3.30
2023-01-11T00:15:57.571Z,3.33
2023-01-11T00:18:24.491Z,3.36
2023-01-11T00:20:51.364Z,3.43
2023-01-11T00:23:18.242Z,3.48
2023-01-11T00:25:45.158Z,3.55
2023-01-11T00:28:11.939Z,3.46
2023-01-11T00:30:39.065Z,3.41
2023-01-11T00:33:11.375Z,3.35
2023-01-11T00:35:38.335Z,3.12
2023-01-11T00:38:05.167Z,2.85
2023-01-11T00:40:32.172Z,2.72
2023-01-11T00:43:23.355Z,2.67
2023-01-11T00:46:08.845Z,2.77
2023-01-11T00:48:35.723Z,2.75
2023-01-11T00:51:02.652Z,2.79
2023-01-11T00:53:29.526Z,2.84
2023-01-11T00:55:56.304Z,2.85
2023-01-11T00:58:29.137Z,2.86
2023-01-11T01:00:56.145Z,2.85
2023-01-11T01:03:26.328Z,2.67
2023-01-11T01:05:57.249Z,2.63
2023-01-11T01:08:24.133Z,2.61
2023-01-11T01:10:54.275Z,2.67
2023-01-11T01:13:56.411Z,2.66
2023-01-11T01:16:23.433Z,2.60
2023-01-11T01:18:52.375Z,2.57
2023-01-11T01:21:21.864Z,2.57
2023-01-11T01:23:48.959Z,2.49
2023-01-11T01:26:18.578Z,2.44
2023-01-11T01:28:54.699Z,2.41
2023-01-11T01:31:21.767Z,2.22
2023-01-11T01:33:48.903Z,2.07
2023-01-11T01:36:15.952Z,2.06
2023-01-11T01:38:43.152Z,2.05
2023-01-11T01:41:12.528Z,2.08
2023-01-11T01:43:52.179Z,2.12
2023-01-11T01:46:20.821Z,2.10
2023-01-11T01:48:57.742Z,2.13
2023-01-11T01:51:31.004Z,2.11
2023-01-11T01:54:07.326Z,2.07
2023-01-11T01:56:48.850Z,2.02
2023-01-11T01:59:32.160Z,1.98
2023-01-11T02:01:59.821Z,1.79
2023-01-11T02:04:30.058Z,1.70
2023-01-11T02:07:20.342Z,1.73
2023-01-11T02:10:08.174Z,1.62
2023-01-11T02:12:39.280Z,1.61
2023-01-11T02:15:08.571Z,1.62
2023-01-11T02:17:37.713Z,1.66
2023-01-11T02:20:09.695Z,1.67
2023-01-11T02:22:48.830Z,1.68
2023-01-11T02:25:34.544Z,1.72
2023-01-11T02:28:28.318Z,1.74
2023-01-11T02:31:17.255Z,1.57
2023-01-11T02:34:26.874Z,1.51
2023-01-11T02:37:12.947Z,1.44
2023-01-11T02:40:15.150Z,1.39
2023-01-11T02:43:12.911Z,1.32
2023-01-11T02:45:51.140Z,1.28
2023-01-11T02:48:29.087Z,1.37
2023-01-11T02:51:11.331Z,1.46
2023-01-11T02:53:48.612Z,1.49
2023-01-11T02:56:27.009Z,1.58
2023-01-11T02:58:55.848Z,1.62
2023-01-11T03:01:23.566Z,1.71
2023-01-11T03:03:51.197Z,1.68
2023-01-11T03:06:35.000Z,1.59
2023-01-11T03:09:05.085Z,1.63
2023-01-11T03:12:20.174Z,1.64
2023-01-11T03:14:59.501Z,1.69
2023-01-11T03:17:35.953Z,1.72
2023-01-11T03:20:28.962Z,1.82
2023-01-11T03:23:05.310Z,1.86
2023-01-11T03:25:50.708Z,1.88
2023-01-11T03:28:32.821Z,1.91
2023-01-11T03:31:08.149Z,2.00
2023-01-11T03:33:52.996Z,2.11
2023-01-11T03:36:21.906Z,2.17
2023-01-11T03:38:56.297Z,2.21
2023-01-11T03:41:26.781Z,2.28
2023-01-11T03:43:54.706Z,2.33
2023-01-11T03:46:28.848Z,2.35
2023-01-11T03:49:02.713Z,2.37
2023-01-11T03:51:52.353Z,2.39
2023-01-11T03:54:25.212Z,2.40
2023-01-11T03:57:04.804Z,2.39
2023-01-11T03:59:35.674Z,2.44
2023-01-11T04:02:03.020Z,2.42
2023-01-11T04:04:30.020Z,2.40
2023-01-11T04:06:57.224Z,2.45
2023-01-11T04:09:24.468Z,2.46
2023-01-11T04:11:53.925Z,2.37
2023-01-11T04:14:21.028Z,2.33
2023-01-11T04:16:47.985Z,2.32
2023-01-11T04:19:14.996Z,2.31
2023-01-11T04:21:42.063Z,2.33
2023-01-11T04:24:09.400Z,2.27
2023-01-11T04:26:36.534Z,2.11
2023-01-11T04:29:05.982Z,2.15
2023-01-11T04:31:33.505Z,2.21
2023-01-11T04:34:00.796Z,2.20
2023-01-11T04:36:32.350Z,2.17
2023-01-11T04:38:59.766Z,2.23
2023-01-11T04:41:47.768Z,2.18
2023-01-11T04:44:14.846Z,2.16
2023-01-11T04:46:45.861Z,2.15
2023-01-11T04:49:15.354Z,2.08
2023-01-11T04:51:42.418Z,2.08
2023-01-11T04:54:09.514Z,2.10
2023-01-11T04:56:36.551Z,2.06
2023-01-11T04:59:05.702Z,2.02
2023-01-11T05:01:32.764Z,2.08
2023-01-11T05:04:00.061Z,2.15
2023-01-11T05:06:27.239Z,2.17
2023-01-11T05:08:54.471Z,2.18
2023-01-11T05:11:21.625Z,2.20
2023-01-11T05:13:54.297Z,2.21
2023-01-11T05:16:32.222Z,2.19
2023-01-11T05:19:05.127Z,2.22
2023-01-11T05:21:39.578Z,2.28
2023-01-11T05:24:12.436Z,2.27
2023-01-11T05:26:44.080Z,2.19
2023-01-11T05:29:13.843Z,2.13
2023-01-11T05:31:41.284Z,2.11
2023-01-11T05:34:10.719Z,2.18
2023-01-11T05:36:37.893Z,2.23
2023-01-11T05:41:46.594Z,2.31
2023-01-11T05:44:32.579Z,2.37
2023-01-11T05:46:59.809Z,2.43
2023-01-11T05:49:28.898Z,2.45
2023-01-11T05:51:58.085Z,2.39
2023-01-11T05:54:26.142Z,2.41
2023-01-11T05:56:53.148Z,2.39
2023-01-11T05:59:20.393Z,2.39
2023-01-11T06:01:47.938Z,2.42
2023-01-11T06:04:16.934Z,2.22
2023-01-11T06:06:51.462Z,2.21
2023-01-11T06:09:18.681Z,2.28
2023-01-11T06:11:45.864Z,2.31
2023-01-11T06:14:12.886Z,2.31
2023-01-11T06:16:43.410Z,2.33
2023-01-11T06:19:17.070Z,2.31
2023-01-11T06:21:44.282Z,2.24
2023-01-11T06:24:11.375Z,2.20
2023-01-11T06:26:44.823Z,2.15
2023-01-11T06:29:12.137Z,2.07
2023-01-11T06:31:40.589Z,2.05
2023-01-11T06:34:07.792Z,2.02
2023-01-11T06:36:38.236Z,2.02
2023-01-11T06:39:07.868Z,2.09
2023-01-11T06:41:35.011Z,2.16
2023-01-11T06:44:03.407Z,2.21
2023-01-11T06:46:30.596Z,2.17
2023-01-11T06:48:57.960Z,2.22
2023-01-11T06:51:25.094Z,2.23
2023-01-11T06:53:52.288Z,2.31
2023-01-11T06:56:23.721Z,2.37
2023-01-11T06:58:52.433Z,2.48
2023-01-11T07:01:19.775Z,2.61
2023-01-11T07:03:48.464Z,2.74
2023-01-11T07:06:15.562Z,2.79
2023-01-11T07:08:42.921Z,2.88
2023-01-11T07:11:10.048Z,2.92
2023-01-11T07:13:37.032Z,3.03
2023-01-11T07:16:04.313Z,3.03
2023-01-11T07:18:31.944Z,3.12
2023-01-11T07:21:05.482Z,3.19
2023-01-11T07:23:32.568Z,3.26
2023-01-11T07:25:59.828Z,3.35
2023-01-11T07:28:28.611Z,3.38
2023-01-11T07:30:59.215Z,3.50
2023-01-11T07:33:31.687Z,3.63
2023-01-11T07:36:00.885Z,3.77
2023-01-11T07:38:30.731Z,3.90
2023-01-11T07:40:57.723Z,4.04
2023-01-11T07:43:24.662Z,4.10
2023-01-11T07:45:55.174Z,4.17
2023-01-11T07:48:26.918Z,4.21
2023-01-11T07:50:54.471Z,4.25
2023-01-11T07:53:22.199Z,4.31
2023-01-11T07:55:51.493Z,4.39
2023-01-11T07:58:18.575Z,4.43
2023-01-11T08:00:46.387Z,4.47
2023-01-11T08:03:13.725Z,4.46
2023-01-11T08:05:43.253Z,4.30
2023-01-11T08:08:10.392Z,4.25
2023-01-11T08:10:38.001Z,4.17
2023-01-11T08:13:35.169Z,4.13
2023-01-11T08:16:02.484Z,4.10
2023-01-11T08:18:29.589Z,4.06
2023-01-11T08:20:56.621Z,3.95
2023-01-11T08:23:23.907Z,3.90
2023-01-11T08:26:00.036Z,3.98
2023-01-11T08:28:28.531Z,4.01
2023-01-11T08:30:55.696Z,4.04
2023-01-11T08:33:26.694Z,4.15
2023-01-11T08:35:54.099Z,4.16
2023-01-11T08:38:37.238Z,4.11
2023-01-11T08:41:31.296Z,4.14
2023-01-11T08:44:05.624Z,4.13
2023-01-11T08:46:35.556Z,4.18
2023-01-11T08:49:12.442Z,4.30
2023-01-11T08:51:40.681Z,4.28
2023-01-11T08:54:17.954Z,4.27
2023-01-11T08:56:51.647Z,4.30
2023-01-11T08:59:22.132Z,4.38
2023-01-11T09:01:49.539Z,4.45
2023-01-11T09:04:24.780Z,4.40
2023-01-11T09:06:55.449Z,4.39
2023-01-11T09:09:22.976Z,4.38
2023-01-11T09:11:57.348Z,4.39
2023-01-11T09:14:28.272Z,4.47
2023-01-11T09:16:56.422Z,4.46
2023-01-11T09:19:23.897Z,4.48
2023-01-11T09:21:51.984Z,4.56
2023-01-11T09:24:19.385Z,4.66
2023-01-11T09:26:46.757Z,4.74
2023-01-11T09:29:14.401Z,4.80
2023-01-11T09:31:41.738Z,4.84
2023-01-11T09:34:11.298Z,4.87
2023-01-11T09:36:40.395Z,4.93
2023-01-11T09:39:10.739Z,4.86
2023-01-11T09:42:00.592Z,4.90
2023-01-11T09:44:29.945Z,4.94
2023-01-11T09:47:12.655Z,4.94
2023-01-11T09:49:45.194Z,4.89
2023-01-11T09:52:24.541Z,4.86
2023-01-11T09:54:51.908Z,4.97
2023-01-11T09:57:34.418Z,4.98
2023-01-11T10:00:09.966Z,5.00
2023-01-11T10:02:50.208Z,4.96
2023-01-11T10:05:36.806Z,4.93
2023-01-11T10:18:25.382Z,4.91
2023-01-11T10:18:26.625Z,4.97
2023-01-11T10:21:11.249Z,4.98
2023-01-11T10:23:55.441Z,4.99
2023-01-11T10:26:29.389Z,5.01
2023-01-11T10:29:19.814Z,4.95
2023-01-11T10:32:43.764Z,4.98
2023-01-11T10:35:52.081Z,5.07
2023-01-11T10:38:56.331Z,5.17
2023-01-11T10:42:00.200Z,5.19
2023-01-11T10:44:39.181Z,5.27
2023-01-11T10:47:16.650Z,5.20
2023-01-11T10:50:06.205Z,5.24
2023-01-11T10:52:48.147Z,5.26
2023-01-11T10:55:23.264Z,5.28
2023-01-11T10:58:19.891Z,5.20
2023-01-11T11:01:17.325Z,5.26
2023-01-11T11:04:20.573Z,5.30
2023-01-11T11:06:55.478Z,5.30
2023-01-11T11:09:42.605Z,5.33
2023-01-11T11:12:19.008Z,5.37
2023-01-11T11:14:52.701Z,5.47
2023-01-11T11:17:28.990Z,5.52
2023-01-11T11:19:59.060Z,5.43
2023-01-11T11:22:29.323Z,5.49
2023-01-11T11:25:02.090Z,5.47
2023-01-11T11:27:41.825Z,5.46
2023-01-11T11:30:14.377Z,5.53
2023-01-11T11:32:54.686Z,5.49
2023-01-11T11:35:38.344Z,5.48
2023-01-11T11:38:06.110Z,5.50
2023-01-11T11:40:35.134Z,5.59
2023-01-11T11:43:23.099Z,5.54
2023-01-11T11:45:54.506Z,5.55
2023-01-11T11:48:22.611Z,5.57
2023-01-11T11:50:50.143Z,5.53
2023-01-11T11:53:29.712Z,5.50
2023-01-11T11:55:58.914Z,5.51
2023-01-11T11:58:26.741Z,5.47
2023-01-11T12:00:54.107Z,5.35
2023-01-11T12:03:22.301Z,5.42
2023-01-11T12:05:51.274Z,5.42
2023-01-11T12:08:24.798Z,5.34
2023-01-11T12:11:01.105Z,5.27
2023-01-11T12:13:33.621Z,5.23
2023-01-11T12:16:03.303Z,5.24
2023-01-11T12:18:41.554Z,5.26
2023-01-11T12:21:14.642Z,5.20
2023-01-11T12:23:41.754Z,5.09
2023-01-11T12:26:15.403Z,5.09
2023-01-11T12:29:00.789Z,5.07
2023-01-11T12:31:42.938Z,5.11
2023-01-11T12:34:23.528Z,5.01
2023-01-11T12:37:23.410Z,4.84
2023-01-11T12:39:58.274Z,4.76
2023-01-11T12:42:48.189Z,4.82
2023-01-11T12:45:45.740Z,4.79
2023-01-11T12:48:36.018Z,4.78
2023-01-11T12:51:24.353Z,4.81
2023-01-11T12:54:04.319Z,4.78
2023-01-11T12:57:08.537Z,4.74
2023-01-11T12:59:41.478Z,4.71
2023-01-11T13:02:22.082Z,4.72
2023-01-11T13:05:06.819Z,4.68
2023-01-11T13:07:49.083Z,4.72
2023-01-11T13:10:40.353Z,4.76
2023-01-11T13:13:22.743Z,4.82
2023-01-11T13:15:53.664Z,4.78
2023-01-11T13:18:29.807Z,4.86
2023-01-11T13:21:18.723Z,4.84
2023-01-11T13:24:16.025Z,4.92
2023-01-11T13:26:45.729Z,4.89
2023-01-11T13:29:25.136Z,4.77
2023-01-11T13:31:54.515Z,4.64
2023-01-11T13:34:52.652Z,4.69
2023-01-11T13:37:44.679Z,4.77
2023-01-11T13:40:29.615Z,4.72
2023-01-11T13:43:00.181Z,4.76
2023-01-11T13:45:40.738Z,4.75
2023-01-11T13:48:25.868Z,4.64
2023-01-11T13:51:05.200Z,4.54
2023-01-11T13:53:37.224Z,4.52
2023-01-11T13:56:19.204Z,4.53
2023-01-11T13:58:56.450Z,4.49
2023-01-11T14:01:44.211Z,4.48
2023-01-11T14:04:23.432Z,4.50
2023-01-11T14:07:08.476Z,4.49
2023-01-11T14:10:00.810Z,4.32
2023-01-11T14:12:33.825Z,4.24
2023-01-11T14:15:03.744Z,4.22
2023-01-11T14:17:42.472Z,4.17
2023-01-11T14:20:20.962Z,4.18
2023-01-11T14:23:07.770Z,4.12
2023-01-11T14:25:52.920Z,4.18
2023-01-11T14:28:31.227Z,4.35
2023-01-11T14:31:04.087Z,4.47
2023-01-11T14:33:52.283Z,4.54
2023-01-11T14:36:44.308Z,4.63
2023-01-11T14:39:24.017Z,4.60
2023-01-11T14:42:31.047Z,4.57
2023-01-11T14:45:22.636Z,4.64
2023-01-11T14:48:13.931Z,4.66
2023-01-11T14:51:16.099Z,4.65
2023-01-11T14:53:47.965Z,4.64
2023-01-11T14:56:42.910Z,4.59
2023-01-11T14:59:31.715Z,4.47
2023-01-11T15:02:04.890Z,4.32
2023-01-11T15:04:38.672Z,4.25
2023-01-11T15:07:24.627Z,4.31
2023-01-11T15:09:54.250Z,4.27
2023-01-11T15:12:24.297Z,4.31
2023-01-11T15:15:12.917Z,4.25
2023-01-11T15:17:59.493Z,4.20
2023-01-11T15:20:26.892Z,4.21
2023-01-11T15:23:01.960Z,4.19
2023-01-11T15:25:33.783Z,4.20
2023-01-11T15:28:25.413Z,4.07
2023-01-11T15:30:52.780Z,4.06
2023-01-11T15:33:19.909Z,4.02
2023-01-11T15:35:56.141Z,4.00
2023-01-11T15:38:45.467Z,4.01
2023-01-11T15:41:36.573Z,3.96
2023-01-11T15:44:22.101Z,3.96
2023-01-11T15:47:15.195Z,3.90
2023-01-11T15:50:21.195Z,3.91
2023-01-11T15:53:23.549Z,3.91
2023-01-11T15:56:08.410Z,3.80
2023-01-11T15:58:57.176Z,3.85
2023-01-11T16:01:26.620Z,3.90
2023-01-11T16:04:05.683Z,3.92
2023-01-11T16:06:37.012Z,3.95
2023-01-11T16:09:15.310Z,3.88
2023-01-11T16:11:51.323Z,3.89
2023-01-11T16:14:42.682Z,3.91
2023-01-11T16:17:14.255Z,3.89
2023-01-11T16:19:44.177Z,3.87
2023-01-11T16:22:19.654Z,3.93
2023-01-11T16:24:49.638Z,3.93
2023-01-11T16:27:24.434Z,3.91
2023-01-11T16:29:52.074Z,3.90
2023-01-11T16:32:27.286Z,3.91
2023-01-11T16:34:55.299Z,3.87
2023-01-11T16:37:25.456Z,3.89
2023-01-11T16:39:55.461Z,3.86
2023-01-11T16:42:22.738Z,3.80
2023-01-11T16:45:14.967Z,3.78
2023-01-11T16:47:42.113Z,3.74
2023-01-11T16:50:20.307Z,3.75
2023-01-11T16:52:55.905Z,3.71
2023-01-11T16:55:27.365Z,3.76
2023-01-11T16:57:57.978Z,3.71
2023-01-11T17:00:34.524Z,3.69
2023-01-11T17:03:06.635Z,3.72
2023-01-11T17:05:40.663Z,3.73
2023-01-11T17:08:52.648Z,3.76
2023-01-11T17:11:31.258Z,3.75
2023-01-11T17:14:27.288Z,3.71
2023-01-11T17:17:00.530Z,3.73
2023-01-11T17:19:29.956Z,3.71
2023-01-11T17:22:09.032Z,3.67
2023-01-11T17:25:02.470Z,3.70
2023-01-11T17:27:38.419Z,3.71
2023-01-11T17:30:14.979Z,3.74
2023-01-11T17:32:44.706Z,3.77
2023-01-11T17:35:17.994Z,3.74
2023-01-11T17:37:45.811Z,3.68
2023-01-11T17:40:21.319Z,3.67
2023-01-11T17:43:10.151Z,3.66
2023-01-11T17:45:39.502Z,3.62
2023-01-11T17:48:14.625Z,3.59
2023-01-11T17:50:49.772Z,3.58
2023-01-11T17:53:21.548Z,3.62
2023-01-11T17:55:52.795Z,3.59
2023-01-11T17:58:22.013Z,3.57
2023-01-11T18:01:15.473Z,3.62
2023-01-11T18:03:57.169Z,3.66
2023-01-11T18:06:35.288Z,3.64
2023-01-11T18:09:16.409Z,3.67
2023-01-11T18:11:43.489Z,3.68
2023-01-11T18:14:28.277Z,3.59
2023-01-11T18:17:03.387Z,3.57
2023-01-11T18:19:39.065Z,3.54
2023-01-11T18:22:25.769Z,3.53
2023-01-11T18:24:53.940Z,3.47
2023-01-11T18:27:28.281Z,3.44
2023-01-11T18:29:56.915Z,3.43
2023-01-11T18:32:24.121Z,3.48
2023-01-11T18:34:53.551Z,3.55
2023-01-11T18:37:20.909Z,3.57
2023-01-11T18:39:48.743Z,3.57
2023-01-11T18:42:21.940Z,3.55
2023-01-11T18:44:49.668Z,3.51
2023-01-11T18:47:25.024Z,3.54
2023-01-11T18:49:52.188Z,3.52
2023-01-11T18:52:23.646Z,3.51
2023-01-11T18:54:51.449Z,3.39
2023-01-11T18:57:19.001Z,3.29
2023-01-11T18:59:47.082Z,3.26
2023-01-11T19:04:46.426Z,3.26
2023-01-11T19:07:14.030Z,3.22
2023-01-11T19:09:41.434Z,3.20
2023-01-11T19:12:08.678Z,3.13
2023-01-11T19:14:36.044Z,3.14
2023-01-11T19:17:04.980Z,3.19
2023-01-11T19:19:32.188Z,3.26
2023-01-11T19:22:01.971Z,3.35
2023-01-11T19:24:29.330Z,3.38
2023-01-11T19:26:56.485Z,3.40
2023-01-11T19:29:26.223Z,3.45
2023-01-11T19:31:55.813Z,3.45
2023-01-11T19:34:23.501Z,3.37
2023-01-11T19:36:51.577Z,3.38
2023-01-11T19:39:18.733Z,3.38
2023-01-11T19:41:54.800Z,3.37
2023-01-11T19:44:24.286Z,3.36
2023-01-11T19:46:57.043Z,3.28
2023-01-11T19:49:36.895Z,3.12
2023-01-11T19:52:04.468Z,3.15
2023-01-11T19:54:31.575Z,3.16
2023-01-11T19:56:58.967Z,3.08
2023-01-11T19:59:26.074Z,2.98
2023-01-11T20:01:53.139Z,2.97
2023-01-11T20:04:21.236Z,2.94
2023-01-11T20:06:52.204Z,2.93
2023-01-11T20:09:19.761Z,2.99
2023-01-11T20:11:49.490Z,2.96
2023-01-11T20:14:16.967Z,2.95
2023-01-11T20:16:44.105Z,2.90
2023-01-11T20:19:11.182Z,2.86
2023-01-11T20:21:39.509Z,2.79
2023-01-11T20:24:06.749Z,2.81
2023-01-11T20:26:36.666Z,2.81
2023-01-11T20:29:05.804Z,2.83
2023-01-11T20:31:35.251Z,2.87
2023-01-11T20:34:06.954Z,2.83
2023-01-11T20:36:33.871Z,2.70
2023-01-11T20:39:00.767Z,2.73
2023-01-11T20:41:46.771Z,2.72
2023-01-11T20:44:24.270Z,2.77
2023-01-11T20:46:52.419Z,2.86
2023-01-11T20:49:23.173Z,2.90
2023-01-11T20:51:50.523Z,2.98
2023-01-11T20:54:18.804Z,2.91
2023-01-11T20:56:48.681Z,2.88
2023-01-11T20:59:19.228Z,2.80
2023-01-11T21:01:50.469Z,2.82
2023-01-11T21:04:18.774Z,2.90
2023-01-11T21:06:48.457Z,2.93
2023-01-11T21:09:17.249Z,2.98
2023-01-11T21:11:44.491Z,2.96
2023-01-11T21:14:14.264Z,2.91
2023-01-11T21:16:42.109Z,2.93
2023-01-11T21:19:11.608Z,2.92
2023-01-11T21:21:38.742Z,3.03
2023-01-11T21:24:06.290Z,3.07
2023-01-11T21:26:35.044Z,3.11
2023-01-11T21:29:04.883Z,3.08
2023-01-11T21:31:36.664Z,3.07
2023-01-11T21:34:04.691Z,3.14
2023-01-11T21:36:34.941Z,3.13
2023-01-11T21:39:02.867Z,3.16
2023-01-11T21:41:50.613Z,3.17
2023-01-11T21:44:19.134Z,3.21
2023-01-11T21:46:46.750Z,3.21
2023-01-11T21:49:14.788Z,3.19
2023-01-11T21:51:42.413Z,3.22
2023-01-11T21:54:14.492Z,3.27
2023-01-11T21:56:44.174Z,3.27
2023-01-11T21:59:14.294Z,3.24
2023-01-11T22:01:43.997Z,3.19
2023-01-11T22:04:13.672Z,3.20
2023-01-11T22:06:43.112Z,3.19
2023-01-11T22:09:11.768Z,3.09
2023-01-11T22:11:39.259Z,3.08
2023-01-11T22:14:08.640Z,3.10
2023-01-11T22:16:37.096Z,3.08
2023-01-11T22:19:06.820Z,3.07
2023-01-11T22:21:34.229Z,3.07
2023-01-11T22:24:05.047Z,3.10
2023-01-11T22:26:33.747Z,3.14
2023-01-11T22:29:12.904Z,3.13
2023-01-11T22:32:01.046Z,3.03
2023-01-11T22:34:28.579Z,2.98
2023-01-11T22:36:55.664Z,3.00
2023-01-11T22:39:24.240Z,3.01
2023-01-11T22:41:51.641Z,3.02
2023-01-11T22:44:19.079Z,3.05
2023-01-11T22:46:48.887Z,3.05
2023-01-11T22:49:17.556Z,3.09
2023-01-11T22:51:44.742Z,3.08
2023-01-11T22:54:12.166Z,3.09
2023-01-11T22:56:39.521Z,3.09
2023-01-11T22:59:06.856Z,3.11
2023-01-11T23:01:36.055Z,3.05
2023-01-11T23:04:03.438Z,3.08
2023-01-11T23:06:38.693Z,3.04
2023-01-11T23:09:07.959Z,3.00
2023-01-11T23:11:58.153Z,2.96
2023-01-11T23:14:30.484Z,2.87
2023-01-11T23:17:00.777Z,2.75
2023-01-11T23:19:27.709Z,2.68
2023-01-11T23:21:54.931Z,2.65
2023-01-11T23:24:22.305Z,2.52
2023-01-11T23:26:49.238Z,2.40
2023-01-11T23:29:16.499Z,2.26
2023-01-11T23:31:43.684Z,2.31
2023-01-11T23:34:12.123Z,2.22
2023-01-11T23:36:41.672Z,2.24
2023-01-11T23:39:14.778Z,2.21
2023-01-11T23:42:00.671Z,2.17
2023-01-11T23:44:27.868Z,2.12
2023-01-11T23:47:13.243Z,2.14
2023-01-11T23:49:40.976Z,2.16
2023-01-11T23:52:07.833Z,2.23
2023-01-11T23:54:35.085Z,2.25
2023-01-11T23:57:02.839Z,2.23
2023-01-11T23:59:30.577Z,2.20
